createdAt,value
2019-04-20T00:04:20.716Z,10.55
2019-04-20T00:09:24.635Z,11.95
2019-04-20T00:14:29.628Z,7.87
2019-04-20T00:19:37.481Z,8.73
2019-04-20T00:24:42.323Z,8.47
2019-04-20T00:30:05.438Z,8.80
2019-04-20T00:34:53.941Z,8.78
2019-04-20T00:39:59.469Z,9.67
2019-04-20T00:45:12.024Z,7.60
2019-04-20T00:50:28.345Z,9.03
2019-04-20T00:55:17.026Z,10.28
2019-04-20T01:00:37.105Z,12.30
2019-04-20T01:05:55.747Z,10.03
2019-04-20T01:10:47.222Z,7.30
2019-04-20T01:15:55.372Z,7.17
2019-04-20T01:20:53.659Z,14.63
2019-04-20T01:26:03.977Z,8.97
2019-04-20T01:31:14.696Z,8.57
2019-04-20T01:36:34.967Z,8.33
2019-04-20T01:41:16.122Z,9.97
2019-04-20T01:46:23.499Z,9.63
2019-04-20T01:51:30.498Z,8.30
2019-04-20T01:56:47.451Z,10.80
2019-04-20T02:02:14.295Z,9.03
2019-04-20T02:07:18.294Z,15.10
2019-04-20T02:12:26.082Z,11.10
2019-04-20T02:17:36.950Z,14.50
2019-04-20T02:22:46.472Z,8.67
2019-04-20T02:27:45.620Z,13.93
2019-04-20T02:33:28.888Z,9.63
2019-04-20T02:49:12.938Z,12.70
2019-04-20T02:54:18.819Z,6.97
2019-04-20T02:59:45.029Z,10.00
2019-04-20T03:03:52.648Z,12.43
2019-04-20T03:09:15.129Z,14.13
2019-04-20T03:14:18.599Z,9.20
2019-04-20T03:19:20.679Z,12.80
2019-04-20T03:24:38.742Z,10.87
2019-04-20T03:30:03.713Z,13.53
2019-04-20T03:35:12.172Z,14.80
2019-04-20T03:40:09.894Z,15.13
2019-04-20T03:45:06.005Z,14.03
2019-04-20T03:50:33.236Z,17.73
2019-04-20T03:55:51.348Z,13.57
2019-04-20T04:00:59.755Z,18.70
2019-04-20T04:06:07.838Z,16.63
2019-04-20T04:11:16.256Z,16.17
2019-04-20T04:16:08.807Z,17.47
2019-04-20T04:21:18.261Z,21.23
2019-04-20T04:26:34.354Z,19.30
2019-04-20T04:31:45.592Z,20.13
2019-04-20T04:36:50.200Z,20.13
2019-04-20T04:42:01.831Z,20.40
2019-04-20T04:46:46.435Z,17.60
2019-04-20T04:51:54.936Z,20.67
2019-04-20T04:56:52.578Z,21.13
2019-04-20T05:01:58.373Z,21.60
2019-04-20T05:07:16.811Z,19.67
2019-04-20T05:12:14.982Z,23.70
2019-04-20T05:17:34.274Z,21.67
2019-04-20T05:22:46.873Z,21.07
2019-04-20T05:27:56.415Z,25.27
2019-04-20T05:32:51.443Z,21.17
2019-04-20T05:38:15.822Z,22.43
2019-04-20T05:43:27.504Z,25.30
2019-04-20T05:48:33.652Z,22.30
2019-04-20T05:53:45.757Z,21.40
2019-04-20T05:58:52.327Z,21.83
2019-04-20T06:03:49.014Z,26.00
2019-04-20T06:09:08.553Z,22.50
2019-04-20T06:14:08.190Z,24.87
2019-04-20T06:24:43.779Z,19.90
2019-04-20T06:29:41.315Z,21.37
2019-04-20T06:35:02.727Z,24.30
2019-04-20T06:39:54.651Z,28.20
2019-04-20T06:45:02.057Z,21.73
2019-04-20T06:50:12.792Z,25.27
2019-04-20T06:55:14.166Z,26.30
2019-04-20T07:00:25.733Z,21.20
2019-04-20T07:05:34.668Z,25.27
2019-04-20T07:10:40.641Z,24.17
2019-04-20T07:15:54.188Z,21.77
2019-04-20T07:21:23.101Z,24.92
2019-04-20T07:26:32.231Z,19.87
2019-04-20T07:31:30.847Z,22.40
2019-04-20T07:36:40.449Z,26.77
2019-04-20T07:41:57.244Z,23.55
2019-04-20T07:47:01.529Z,21.27
2019-04-20T07:51:39.120Z,26.42
2019-04-20T07:57:01.828Z,22.25
2019-04-20T08:02:35.526Z,21.65
2019-04-20T08:07:13.663Z,21.60
2019-04-20T08:12:56.966Z,28.83
2019-04-20T08:18:01.178Z,25.40
2019-04-20T08:23:12.914Z,22.02
2019-04-20T08:28:21.404Z,25.52
2019-04-20T08:33:44.745Z,24.80
2019-04-20T08:39:08.278Z,20.43
2019-04-20T08:43:58.702Z,20.68
2019-04-20T08:48:55.898Z,21.20
2019-04-20T08:54:03.319Z,19.23
2019-04-20T08:58:50.622Z,14.98
2019-04-20T09:04:04.716Z,21.07
2019-04-20T09:09:34.740Z,22.50
2019-04-20T09:14:21.346Z,20.45
2019-04-20T09:19:36.670Z,19.52
2019-04-20T09:24:51.493Z,16.70
2019-04-20T09:29:54.694Z,17.45
2019-04-20T09:35:01.072Z,23.27
2019-04-20T09:40:32.200Z,13.55
2019-04-20T09:45:27.753Z,16.60
2019-04-20T09:50:40.920Z,15.08
2019-04-20T09:55:42.906Z,18.60
2019-04-20T10:00:59.524Z,12.78
2019-04-20T10:05:49.658Z,14.38
2019-04-20T10:10:54.395Z,12.25
2019-04-20T10:16:00.023Z,12.65
2019-04-20T10:21:05.481Z,12.13
2019-04-20T10:26:09.717Z,10.68
2019-04-20T10:31:14.728Z,9.73
2019-04-20T10:36:37.586Z,8.40
2019-04-20T10:41:49.171Z,12.40
2019-04-20T10:46:49.063Z,13.80
2019-04-20T10:51:53.650Z,23.35
2019-04-20T10:56:57.877Z,13.80
2019-04-20T11:02:02.077Z,13.75
2019-04-20T11:07:06.367Z,23.67
2019-04-20T11:12:10.756Z,10.32
2019-04-20T11:17:16.223Z,23.50
2019-04-20T11:22:22.137Z,17.92
2019-04-20T11:27:27.956Z,10.30
2019-04-20T11:32:32.297Z,11.18
2019-04-20T11:37:37.312Z,18.60
2019-04-20T11:42:41.701Z,10.18
2019-04-20T11:47:47.293Z,12.40
2019-04-20T11:52:52.988Z,15.32
2019-04-20T11:57:58.275Z,10.85
2019-04-20T12:03:31.123Z,13.43
2019-04-20T12:08:29.273Z,17.55
2019-04-20T12:13:34.508Z,10.18
2019-04-20T12:18:38.874Z,13.55
2019-04-20T12:23:44.430Z,11.25
2019-04-20T12:28:49.714Z,9.45
2019-04-20T12:33:54.778Z,33.02
2019-04-20T12:38:59.281Z,13.18
2019-04-20T12:44:03.875Z,12.78
2019-04-20T12:49:09.430Z,12.80
2019-04-20T12:54:14.511Z,10.68
2019-04-20T12:59:18.831Z,11.20
2019-04-20T13:04:23.046Z,14.63
2019-04-20T13:09:34.576Z,14.03
2019-04-20T13:15:08.550Z,10.80
2019-04-20T13:20:14.117Z,11.40
2019-04-20T13:25:19.075Z,10.53
2019-04-20T13:30:23.904Z,9.48
2019-04-20T13:35:28.262Z,9.75
2019-04-20T13:40:33.440Z,8.60
2019-04-20T13:45:37.685Z,12.47
2019-04-20T13:50:42.299Z,13.88
2019-04-20T13:55:47.711Z,11.60
2019-04-20T14:01:08.500Z,11.22
2019-04-20T14:06:14.308Z,10.85
2019-04-20T14:11:18.626Z,10.58
2019-04-20T14:16:23.241Z,24.30
2019-04-20T14:21:27.919Z,9.08
2019-04-20T14:26:32.995Z,21.23
2019-04-20T14:31:38.084Z,7.47
2019-04-20T14:36:42.272Z,7.55
2019-04-20T14:41:46.644Z,8.40
2019-04-20T14:46:51.686Z,12.13
2019-04-20T14:51:58.104Z,8.40
2019-04-20T14:57:03.322Z,7.72
2019-04-20T15:02:12.968Z,11.80
2019-04-20T15:07:18.368Z,12.13
2019-04-20T15:12:35.970Z,7.87
2019-04-20T15:17:37.620Z,11.28
2019-04-20T15:22:45.559Z,6.67
2019-04-20T15:27:50.077Z,8.33
2019-04-20T15:32:54.678Z,7.17
2019-04-20T15:37:59.466Z,7.55
2019-04-20T15:43:11.797Z,5.65
2019-04-20T15:48:10.007Z,7.95
2019-04-20T15:53:15.599Z,8.10
2019-04-20T15:58:20.668Z,7.15
2019-04-20T16:03:29.701Z,7.58
2019-04-20T16:08:41.950Z,10.13
2019-04-20T16:13:50.398Z,6.83
2019-04-20T16:18:52.831Z,4.85
2019-04-20T16:24:01.938Z,3.58
2019-04-20T16:29:06.783Z,11.05
2019-04-20T16:34:13.592Z,8.40
2019-04-20T16:39:18.483Z,8.20
2019-04-20T16:44:23.138Z,5.92
2019-04-20T16:49:28.706Z,9.33
2019-04-20T16:54:33.010Z,9.88
2019-04-20T16:59:40.112Z,6.58
2019-04-20T17:04:43.220Z,8.70
2019-04-20T17:09:48.027Z,7.33
2019-04-20T17:14:53.589Z,6.55
2019-04-20T17:19:57.887Z,9.05
2019-04-20T17:25:02.231Z,8.70
2019-04-20T17:30:27.291Z,10.48
2019-04-20T17:35:43.455Z,12.30
2019-04-20T17:40:55.904Z,11.48
2019-04-20T17:45:55.705Z,8.18
2019-04-20T17:51:15.361Z,8.05
2019-04-20T17:55:57.179Z,8.08
2019-04-20T18:01:26.835Z,6.53
2019-04-20T18:06:45.322Z,5.33
2019-04-20T18:11:40.345Z,10.93
2019-04-20T18:16:56.587Z,8.63
2019-04-20T18:21:55.944Z,5.17
2019-04-20T18:27:26.431Z,8.10
2019-04-20T18:32:31.500Z,11.95
2019-04-20T18:37:36.460Z,7.50
2019-04-20T18:42:43.785Z,6.85
2019-04-20T18:48:07.852Z,12.50
2019-04-20T18:52:53.944Z,7.20
2019-04-20T18:57:59.436Z,11.43
2019-04-20T19:03:11.998Z,9.08
2019-04-20T19:08:13.587Z,8.08
2019-04-20T19:13:29.267Z,7.60
2019-04-20T19:18:49.496Z,11.03
2019-04-20T19:23:53.442Z,9.55
2019-04-20T19:28:53.906Z,15.63
2019-04-20T19:34:13.116Z,9.58
2019-04-20T19:39:17.261Z,10.32
2019-04-20T19:44:17.161Z,8.43
2019-04-20T19:49:25.386Z,9.93
2019-04-20T19:54:41.472Z,9.98
2019-04-20T19:59:33.862Z,9.90
2019-04-20T20:04:32.237Z,11.78
2019-04-20T20:09:41.853Z,8.68
2019-04-20T20:14:46.010Z,9.30
2019-04-20T20:20:14.934Z,8.03
2019-04-20T20:24:54.898Z,7.22
2019-04-20T20:30:10.234Z,8.83
2019-04-20T20:35:14.070Z,5.08
2019-04-20T20:40:18.981Z,12.63
2019-04-20T20:45:26.236Z,5.30
2019-04-20T20:50:42.876Z,4.60
2019-04-20T20:55:40.232Z,4.70
2019-04-20T21:00:53.190Z,4.95
2019-04-20T21:05:42.630Z,9.33
2019-04-20T21:10:48.093Z,5.50
2019-04-20T21:16:02.418Z,6.45
2019-04-20T21:21:15.093Z,6.10
2019-04-20T21:26:12.736Z,10.58
2019-04-20T21:31:20.412Z,8.15
2019-04-20T21:36:25.922Z,8.18
2019-04-20T21:41:27.191Z,5.20
2019-04-20T21:46:39.912Z,5.85
2019-04-20T21:51:48.974Z,7.53
2019-04-20T21:56:49.847Z,5.92
2019-04-20T22:01:58.582Z,7.60
2019-04-20T22:06:56.202Z,15.38
2019-04-20T22:12:00.534Z,6.95
2019-04-20T22:17:05.474Z,6.60
2019-04-20T22:22:18.574Z,10.43
2019-04-20T22:27:21.150Z,7.00
2019-04-20T22:32:22.585Z,5.80
2019-04-20T22:37:35.304Z,9.73
2019-04-20T22:42:47.473Z,6.55
2019-04-20T22:47:46.236Z,8.00
2019-04-20T22:53:06.721Z,7.35
2019-04-20T22:58:04.579Z,4.90
2019-04-20T23:03:02.969Z,5.70
2019-04-20T23:08:08.585Z,5.30
2019-04-20T23:13:13.749Z,5.60
2019-04-20T23:18:18.189Z,6.35
2019-04-20T23:23:26.089Z,5.78
2019-04-20T23:28:29.141Z,9.00
2019-04-20T23:33:33.798Z,6.60
2019-04-20T23:38:38.984Z,6.67
2019-04-20T23:43:54.896Z,4.53
2019-04-20T23:49:22.124Z,5.65
2019-04-20T23:54:25.590Z,11.30
2019-04-20T23:59:32.395Z,5.42
